Time;durP1;ratioP1;P1;durP2;ratioP2;P2;SDS_P1;SDS_P2;PMS_P1;PMS_P2;Temp;Humidity;BMP_temperature;BMP_pressure;BME280_temperature;BME280_humidity;BME280_pressure;Samples;Min_cycle;Max_cycle;Signal;HPM_P1;HPM_P2
2022/03/25 00:00:41;;;;;;;99.70;43.97;;;;;;;;;;4449304;32;20305;-52
2022/03/25 00:03:07;;;;;;;116.90;50.30;;;;;;;;;;4450521;32;20328;-51
2022/03/25 00:05:32;;;;;;;106.87;51.80;;;;;;;;;;4455509;32;20318;-53
2022/03/25 00:07:58;;;;;;;116.17;54.20;;;;;;;;;;4450433;32;20217;-52
2022/03/25 00:10:24;;;;;;;90.77;41.63;;;;;;;;;;4450207;32;20279;-53
2022/03/25 00:12:50;;;;;;;71.70;35.03;;;;;;;;;;4450149;32;20320;-51
2022/03/25 00:15:16;;;;;;;79.97;35.73;;;;;;;;;;4450328;32;20291;-51
2022/03/25 00:17:42;;;;;;;78.83;39.07;;;;;;;;;;4450453;32;20312;-52
2022/03/25 00:20:08;;;;;;;87.90;40.67;;;;;;;;;;4450254;32;20286;-51
2022/03/25 00:22:34;;;;;;;78.27;39.37;;;;;;;;;;4450364;32;20252;-52
2022/03/25 00:25:00;;;;;;;79.43;35.93;;;;;;;;;;4450163;32;20584;-52
2022/03/25 00:27:26;;;;;;;73.43;35.27;;;;;;;;;;4448829;32;20335;-52
2022/03/25 00:29:51;;;;;;;94.80;40.53;;;;;;;;;;4449820;32;20302;-52
2022/03/25 00:32:17;;;;;;;81.77;37.20;;;;;;;;;;4450276;32;20342;-52
2022/03/25 00:34:43;;;;;;;90.73;38.97;;;;;;;;;;4450147;32;20275;-52
2022/03/25 00:37:10;;;;;;;81.37;40.70;;;;;;;;;;4448917;32;20273;-51
2022/03/25 00:39:36;;;;;;;101.60;45.67;;;;;;;;;;4453436;32;20465;-51
2022/03/25 00:42:03;;;;;;;119.63;46.43;;;;;;;;;;4465326;32;20600;-52
2022/03/25 00:44:28;;;;;;;107.13;44.67;;;;;;;;;;4465402;32;20251;-52
2022/03/25 00:46:54;;;;;;;103.00;47.67;;;;;;;;;;4464049;32;20556;-51
2022/03/25 00:49:20;;;;;;;91.73;45.40;;;;;;;;;;4465666;32;20331;-52
2022/03/25 00:51:46;;;;;;;92.70;44.80;;;;;;;;;;4465320;32;20315;-51
2022/03/25 00:54:12;;;;;;;100.60;45.60;;;;;;;;;;4465657;32;20334;-53
2022/03/25 00:56:38;;;;;;;101.47;44.87;;;;;;;;;;4465319;32;20498;-51
2022/03/25 00:59:03;;;;;;;89.13;42.17;;;;;;;;;;4450273;32;20238;-52
2022/03/25 01:01:29;;;;;;;93.40;41.77;;;;;;;;;;4448432;32;20291;-51
2022/03/25 01:03:54;;;;;;;84.60;40.50;;;;;;;;;;4450008;32;20224;-52
2022/03/25 01:06:21;;;;;;;85.50;40.90;;;;;;;;;;4454155;32;20285;-51
2022/03/25 01:08:47;;;;;;;86.23;39.03;;;;;;;;;;4450065;32;20280;-51
2022/03/25 01:11:13;;;;;;;95.50;42.07;;;;;;;;;;4449582;32;20299;-51
2022/03/25 01:13:38;;;;;;;97.20;46.30;;;;;;;;;;4449842;32;20593;-52
2022/03/25 01:16:05;;;;;;;94.33;43.40;;;;;;;;;;4449192;32;20284;-50
2022/03/25 01:18:31;;;;;;;85.57;38.93;;;;;;;;;;4449853;32;20315;-51
2022/03/25 01:20:57;;;;;;;79.67;40.40;;;;;;;;;;4449699;32;20382;-50
2022/03/25 01:23:24;;;;;;;92.10;36.23;;;;;;;;;;4449457;32;20232;-52
2022/03/25 01:25:49;;;;;;;84.93;37.67;;;;;;;;;;4460503;32;20263;-52
2022/03/25 01:28:15;;;;;;;79.40;36.37;;;;;;;;;;4459399;32;20268;-51
2022/03/25 01:30:40;;;;;;;79.93;38.67;;;;;;;;;;4454551;32;20339;-52
2022/03/25 01:33:06;;;;;;;79.00;38.80;;;;;;;;;;4450001;32;20665;-51
2022/03/25 01:35:32;;;;;;;72.70;36.13;;;;;;;;;;4456404;32;20309;-52
2022/03/25 01:37:57;;;;;;;96.53;40.80;;;;;;;;;;4449198;32;20292;-52
2022/03/25 01:40:23;;;;;;;88.57;45.23;;;;;;;;;;4457852;32;20768;-52
2022/03/25 01:42:49;;;;;;;107.17;46.60;;;;;;;;;;4464379;32;20253;-51
2022/03/25 01:45:28;;;;;;;108.80;44.93;;;;;;;;;;4464462;32;20688;-51
2022/03/25 01:47:54;;;;;;;89.03;42.77;;;;;;;;;;4464510;32;20580;-52
2022/03/25 01:50:20;;;;;;;85.13;38.97;;;;;;;;;;4464626;32;20280;-51
2022/03/25 01:52:51;;;;;;;56.27;28.03;;;;;;;;;;4454680;32;20248;-52
2022/03/25 01:55:21;;;;;;;53.77;24.70;;;;;;;;;;4449124;32;20298;-51
2022/03/25 01:57:48;;;;;;;47.97;19.53;;;;;;;;;;4448807;32;20307;-53
2022/03/25 02:00:15;;;;;;;39.80;18.10;;;;;;;;;;4449208;32;20223;-51
2022/03/25 02:02:43;;;;;;;32.80;16.63;;;;;;;;;;4455080;32;20640;-51
2022/03/25 02:05:09;;;;;;;29.87;16.03;;;;;;;;;;4453337;32;20715;-51
2022/03/25 02:07:35;;;;;;;43.33;20.67;;;;;;;;;;4448551;32;20705;-51
2022/03/25 02:10:01;;;;;;;37.40;16.93;;;;;;;;;;4448663;32;20271;-52
2022/03/25 02:12:26;;;;;;;35.57;18.30;;;;;;;;;;4448615;32;20424;-52
2022/03/25 02:14:52;;;;;;;44.70;21.83;;;;;;;;;;4448741;32;20310;-52
2022/03/25 02:17:18;;;;;;;59.83;25.57;;;;;;;;;;4448558;32;20366;-51
2022/03/25 02:19:43;;;;;;;56.10;28.33;;;;;;;;;;4448622;32;20299;-52
2022/03/25 02:22:09;;;;;;;65.47;33.40;;;;;;;;;;4448201;32;20276;-51
2022/03/25 02:24:34;;;;;;;87.93;35.87;;;;;;;;;;4448392;32;20325;-51
2022/03/25 02:27:02;;;;;;;69.33;35.10;;;;;;;;;;4448393;32;20307;-51
2022/03/25 02:29:27;;;;;;;80.37;39.57;;;;;;;;;;4448511;32;20637;-51
2022/03/25 02:31:53;;;;;;;78.43;38.90;;;;;;;;;;4448130;32;20193;-53
2022/03/25 02:34:18;;;;;;;71.33;36.13;;;;;;;;;;4448587;32;20592;-51
2022/03/25 02:36:45;;;;;;;81.43;38.37;;;;;;;;;;4448059;32;20428;-51
2022/03/25 02:39:13;;;;;;;80.10;38.23;;;;;;;;;;4447987;32;20716;-52
2022/03/25 02:41:38;;;;;;;73.47;37.40;;;;;;;;;;4446925;32;20272;-51
2022/03/25 02:44:05;;;;;;;82.50;39.83;;;;;;;;;;4448115;32;20572;-51
2022/03/25 02:46:30;;;;;;;87.50;38.60;;;;;;;;;;4446845;32;20224;-52
2022/03/25 02:48:56;;;;;;;70.93;38.27;;;;;;;;;;4448108;32;20416;-53
2022/03/25 02:51:21;;;;;;;72.20;35.00;;;;;;;;;;4448407;32;20576;-52
2022/03/25 02:53:47;;;;;;;76.17;32.33;;;;;;;;;;4463551;32;20740;-52
2022/03/25 02:56:13;;;;;;;61.40;30.00;;;;;;;;;;4463440;32;20714;-52
2022/03/25 02:58:38;;;;;;;86.03;35.33;;;;;;;;;;4450851;32;20224;-51
2022/03/25 03:01:05;;;;;;;85.87;34.93;;;;;;;;;;4447232;32;20283;-52
2022/03/25 03:03:30;;;;;;;73.73;34.27;;;;;;;;;;4447978;32;21023;-52
2022/03/25 03:05:55;;;;;;;76.27;32.60;;;;;;;;;;4452678;32;20370;-50
2022/03/25 03:08:21;;;;;;;63.93;31.03;;;;;;;;;;4446953;32;20521;-52
2022/03/25 03:10:47;;;;;;;51.27;26.73;;;;;;;;;;4448177;32;20279;-51
2022/03/25 03:13:13;;;;;;;55.13;23.93;;;;;;;;;;4446837;32;20240;-50
2022/03/25 03:15:39;;;;;;;59.07;24.77;;;;;;;;;;4447840;32;20302;-52
2022/03/25 03:18:04;;;;;;;47.00;22.80;;;;;;;;;;4446524;32;20552;-53
2022/03/25 03:20:30;;;;;;;58.30;22.37;;;;;;;;;;4447863;32;20267;-51
2022/03/25 03:22:57;;;;;;;44.60;21.70;;;;;;;;;;4447913;32;20705;-51
2022/03/25 03:25:23;;;;;;;52.13;20.30;;;;;;;;;;4447542;32;20216;-52
2022/03/25 03:27:48;;;;;;;50.03;21.37;;;;;;;;;;4447996;32;20259;-52
2022/03/25 03:30:14;;;;;;;40.80;21.70;;;;;;;;;;4447877;32;20593;-51
2022/03/25 03:32:40;;;;;;;49.40;23.07;;;;;;;;;;4448107;32;20221;-51
2022/03/25 03:35:06;;;;;;;45.57;22.53;;;;;;;;;;4447463;32;20410;-52
2022/03/25 03:37:39;;;;;;;54.03;24.40;;;;;;;;;;4447726;32;20220;-51
2022/03/25 03:40:05;;;;;;;50.27;25.60;;;;;;;;;;4454147;32;20228;-51
2022/03/25 03:42:30;;;;;;;67.50;27.40;;;;;;;;;;4463080;32;20372;-51
2022/03/25 03:44:56;;;;;;;65.57;30.80;;;;;;;;;;4463505;32;20287;-51
2022/03/25 03:47:21;;;;;;;71.20;33.00;;;;;;;;;;4463266;32;20263;-49
2022/03/25 03:49:47;;;;;;;70.50;34.47;;;;;;;;;;4463149;32;20228;-52
2022/03/25 03:52:12;;;;;;;64.07;32.27;;;;;;;;;;4456998;32;20614;-51
2022/03/25 03:54:38;;;;;;;63.33;30.80;;;;;;;;;;4447245;32;20445;-51
2022/03/25 03:57:04;;;;;;;66.93;31.53;;;;;;;;;;4447424;32;20243;-51
2022/03/25 03:59:29;;;;;;;66.97;32.37;;;;;;;;;;4447936;32;20228;-50
2022/03/25 04:01:55;;;;;;;65.70;33.03;;;;;;;;;;4458878;32;20987;-51
2022/03/25 04:04:20;;;;;;;72.63;33.80;;;;;;;;;;4461638;32;20667;-50
2022/03/25 04:06:46;;;;;;;62.13;31.73;;;;;;;;;;4447598;32;21010;-51
2022/03/25 04:09:11;;;;;;;66.07;33.97;;;;;;;;;;4447902;32;20216;-50
2022/03/25 04:11:37;;;;;;;83.53;37.93;;;;;;;;;;4447004;32;20290;-51
2022/03/25 04:14:02;;;;;;;79.90;37.00;;;;;;;;;;4450124;32;20676;-52
2022/03/25 04:16:31;;;;;;;82.47;35.83;;;;;;;;;;4449142;32;20300;-51
2022/03/25 04:18:57;;;;;;;66.30;33.43;;;;;;;;;;4450816;32;20656;-51
2022/03/25 04:21:23;;;;;;;59.87;30.47;;;;;;;;;;4450442;32;20212;-50
2022/03/25 04:23:48;;;;;;;62.10;29.97;;;;;;;;;;4450179;32;20753;-50
2022/03/25 04:26:15;;;;;;;54.40;28.70;;;;;;;;;;4449999;32;20275;-51
2022/03/25 04:28:40;;;;;;;66.53;31.50;;;;;;;;;;4450342;32;20349;-50
2022/03/25 04:31:06;;;;;;;65.77;31.13;;;;;;;;;;4450004;32;20370;-51
2022/03/25 04:33:34;;;;;;;74.73;34.10;;;;;;;;;;4450385;32;20327;-51
2022/03/25 04:36:02;;;;;;;82.50;37.53;;;;;;;;;;4449776;32;20265;-51
2022/03/25 04:38:28;;;;;;;72.03;34.77;;;;;;;;;;4450250;32;20259;-51
2022/03/25 04:40:54;;;;;;;74.77;36.03;;;;;;;;;;4449842;32;20352;-52
2022/03/25 04:43:20;;;;;;;71.77;35.70;;;;;;;;;;4449659;32;20656;-52
2022/03/25 04:45:46;;;;;;;78.63;37.93;;;;;;;;;;4448691;32;20332;-51
2022/03/25 04:48:11;;;;;;;73.20;37.57;;;;;;;;;;4449502;32;20241;-51
2022/03/25 04:50:38;;;;;;;81.50;40.67;;;;;;;;;;4450113;32;20695;-51
2022/03/25 04:53:04;;;;;;;85.87;43.33;;;;;;;;;;4461380;32;20507;-50
2022/03/25 04:55:30;;;;;;;76.87;40.30;;;;;;;;;;4465497;32;20724;-56
2022/03/25 04:57:56;;;;;;;87.07;40.50;;;;;;;;;;4457284;32;20459;-51
2022/03/25 05:00:22;;;;;;;75.33;36.17;;;;;;;;;;4450082;32;20561;-51
2022/03/25 05:02:47;;;;;;;81.73;39.03;;;;;;;;;;4448521;32;20299;-52
2022/03/25 05:05:13;;;;;;;95.27;42.57;;;;;;;;;;4454332;32;20676;-51
2022/03/25 05:07:46;;;;;;;84.70;39.90;;;;;;;;;;4449583;32;20758;-51
2022/03/25 05:10:13;;;;;;;85.97;39.07;;;;;;;;;;4457192;32;20589;-51
2022/03/25 05:12:43;;;;;;;76.37;36.17;;;;;;;;;;4465044;32;20261;-50
2022/03/25 05:15:09;;;;;;;86.50;40.77;;;;;;;;;;4465068;32;20276;-52
2022/03/25 05:17:41;;;;;;;79.37;38.73;;;;;;;;;;4465208;32;20286;-52
2022/03/25 05:20:07;;;;;;;88.67;43.00;;;;;;;;;;4465343;32;20306;-51
2022/03/25 05:22:33;;;;;;;105.47;47.50;;;;;;;;;;4465074;32;20216;-51
2022/03/25 05:24:58;;;;;;;116.67;56.13;;;;;;;;;;4464450;32;20302;-51
2022/03/25 05:27:24;;;;;;;134.37;67.03;;;;;;;;;;4464912;32;20342;-51
2022/03/25 05:29:49;;;;;;;117.00;58.40;;;;;;;;;;4465102;32;20287;-51
2022/03/25 05:32:15;;;;;;;92.27;50.20;;;;;;;;;;4464842;32;20271;-51
2022/03/25 05:34:40;;;;;;;89.37;42.53;;;;;;;;;;4464964;32;20290;-51
2022/03/25 05:37:06;;;;;;;85.23;41.13;;;;;;;;;;4464306;32;20366;-51
2022/03/25 05:39:32;;;;;;;70.10;34.70;;;;;;;;;;4459693;32;20667;-51
2022/03/25 05:41:58;;;;;;;66.07;32.30;;;;;;;;;;4448856;32;20204;-52
2022/03/25 05:44:23;;;;;;;60.57;31.67;;;;;;;;;;4448829;32;20263;-51
2022/03/25 05:46:49;;;;;;;81.40;41.83;;;;;;;;;;4448617;32;20239;-51
2022/03/25 05:49:15;;;;;;;105.33;53.33;;;;;;;;;;4448883;32;20228;-52
2022/03/25 05:51:40;;;;;;;108.30;55.97;;;;;;;;;;4446955;32;20220;-51
2022/03/25 05:54:06;;;;;;;114.33;54.27;;;;;;;;;;4448604;32;20333;-52
2022/03/25 05:56:31;;;;;;;77.77;42.47;;;;;;;;;;4448209;32;20197;-52
2022/03/25 05:58:57;;;;;;;65.03;32.40;;;;;;;;;;4448685;32;20629;-52
2022/03/25 06:01:23;;;;;;;52.03;26.97;;;;;;;;;;4456236;32;20592;-51
2022/03/25 06:03:49;;;;;;;41.37;24.50;;;;;;;;;;4463760;32;20280;-52
2022/03/25 06:06:14;;;;;;;54.47;25.53;;;;;;;;;;4455529;32;20314;-53
2022/03/25 06:08:40;;;;;;;55.80;27.97;;;;;;;;;;4448466;32;20250;-53
2022/03/25 06:11:05;;;;;;;55.67;27.40;;;;;;;;;;4447819;32;20711;-54
2022/03/25 06:13:31;;;;;;;55.73;28.93;;;;;;;;;;4447758;32;20271;-53
2022/03/25 06:15:56;;;;;;;57.90;26.13;;;;;;;;;;4447617;32;20292;-52
2022/03/25 06:18:22;;;;;;;43.53;23.83;;;;;;;;;;4448026;32;20254;-52
2022/03/25 06:20:48;;;;;;;68.67;31.57;;;;;;;;;;4447526;32;20323;-54
2022/03/25 06:23:13;;;;;;;50.07;24.03;;;;;;;;;;4447907;32;20327;-51
2022/03/25 06:25:39;;;;;;;31.43;19.03;;;;;;;;;;4448066;32;20321;-54
2022/03/25 06:28:06;;;;;;;30.10;17.87;;;;;;;;;;4448083;32;20244;-52
2022/03/25 06:30:36;;;;;;;41.47;18.00;;;;;;;;;;4448108;32;20316;-51
2022/03/25 06:33:07;;;;;;;43.97;23.50;;;;;;;;;;4447866;32;20572;-52
2022/03/25 06:35:33;;;;;;;40.10;20.37;;;;;;;;;;4448048;32;20201;-52
2022/03/25 06:37:58;;;;;;;41.80;22.00;;;;;;;;;;4447986;32;20251;-52
2022/03/25 06:40:24;;;;;;;42.07;22.30;;;;;;;;;;4456622;32;20699;-51
2022/03/25 06:42:56;;;;;;;34.63;21.93;;;;;;;;;;4461734;32;20466;-51
2022/03/25 06:45:23;;;;;;;41.07;21.80;;;;;;;;;;4448164;32;20239;-52
2022/03/25 06:47:49;;;;;;;45.53;20.53;;;;;;;;;;4448051;32;20553;-51
2022/03/25 06:50:16;;;;;;;62.53;28.57;;;;;;;;;;4448178;32;20215;-52
2022/03/25 06:52:42;;;;;;;42.33;20.97;;;;;;;;;;4447954;32;20228;-52
2022/03/25 06:55:09;;;;;;;39.50;20.47;;;;;;;;;;4448192;32;20654;-52
2022/03/25 06:57:35;;;;;;;39.57;19.87;;;;;;;;;;4447227;32;20357;-52
2022/03/25 07:00:01;;;;;;;41.77;23.33;;;;;;;;;;4446054;32;20283;-53
2022/03/25 07:02:26;;;;;;;43.23;21.03;;;;;;;;;;4445359;32;20316;-52
2022/03/25 07:04:52;;;;;;;38.53;19.10;;;;;;;;;;4450282;32;20310;-53
2022/03/25 07:07:21;;;;;;;29.73;18.57;;;;;;;;;;4445634;32;20213;-52
2022/03/25 07:09:46;;;;;;;37.43;20.07;;;;;;;;;;4445015;32;20306;-54
2022/03/25 07:12:12;;;;;;;37.03;19.07;;;;;;;;;;4445077;32;20350;-53
2022/03/25 07:14:38;;;;;;;32.50;18.47;;;;;;;;;;4445165;32;20393;-54
2022/03/25 07:17:04;;;;;;;36.80;19.47;;;;;;;;;;4445299;32;20633;-52
2022/03/25 07:19:29;;;;;;;35.87;19.53;;;;;;;;;;4445841;32;20728;-53
2022/03/25 07:21:55;;;;;;;34.60;20.77;;;;;;;;;;4460987;32;20613;-52
2022/03/25 07:24:21;;;;;;;43.10;21.17;;;;;;;;;;4461023;32;20564;-52
2022/03/25 07:26:47;;;;;;;35.80;20.17;;;;;;;;;;4461855;32;20303;-53
2022/03/25 07:29:12;;;;;;;56.20;22.97;;;;;;;;;;4462853;32;20232;-51
2022/03/25 07:31:38;;;;;;;37.20;20.30;;;;;;;;;;4462009;32;20236;-53
2022/03/25 07:34:03;;;;;;;31.43;19.20;;;;;;;;;;4461847;32;20240;-53
2022/03/25 07:36:29;;;;;;;40.20;20.40;;;;;;;;;;4462797;32;20196;-53
2022/03/25 07:38:55;;;;;;;33.63;20.70;;;;;;;;;;4461562;32;20224;-53
2022/03/25 07:41:21;;;;;;;35.50;19.60;;;;;;;;;;4447223;32;20228;-52
2022/03/25 07:43:46;;;;;;;44.33;19.03;;;;;;;;;;4447040;32;20295;-52
2022/03/25 07:46:12;;;;;;;35.03;20.70;;;;;;;;;;4447335;32;20339;-52
2022/03/25 07:48:38;;;;;;;38.67;20.03;;;;;;;;;;4450101;32;20373;-51
2022/03/25 07:51:03;;;;;;;41.03;18.33;;;;;;;;;;4450139;32;20313;-52
2022/03/25 07:53:29;;;;;;;32.17;18.03;;;;;;;;;;4449152;32;20299;-52
2022/03/25 07:55:55;;;;;;;13.93;10.40;;;;;;;;;;4449243;32;20279;-52
2022/03/25 07:58:22;;;;;;;17.53;11.17;;;;;;;;;;4460803;32;20592;-53
2022/03/25 08:00:48;;;;;;;16.03;11.37;;;;;;;;;;4458749;32;20231;-52
2022/03/25 08:03:16;;;;;;;19.00;10.90;;;;;;;;;;4456926;32;20284;-52
2022/03/25 08:05:42;;;;;;;21.23;11.83;;;;;;;;;;4448807;32;20220;-53
2022/03/25 08:08:08;;;;;;;24.80;11.43;;;;;;;;;;4450214;32;20251;-53
2022/03/25 08:10:35;;;;;;;17.53;11.90;;;;;;;;;;4450170;32;20275;-53
2022/03/25 08:13:01;;;;;;;24.23;12.47;;;;;;;;;;4450374;32;20248;-52
2022/03/25 08:15:28;;;;;;;15.83;11.00;;;;;;;;;;4450164;32;20318;-52
2022/03/25 08:18:00;;;;;;;15.47;10.80;;;;;;;;;;4453123;32;20288;-52
2022/03/25 08:20:29;;;;;;;24.20;12.27;;;;;;;;;;4450151;32;20204;-53
2022/03/25 08:22:59;;;;;;;21.93;12.73;;;;;;;;;;4450254;32;20229;-51
2022/03/25 08:28:09;;;;;;;48.93;17.93;;;;;;;;;;4450121;32;20250;-53
2022/03/25 08:30:35;;;;;;;37.60;19.93;;;;;;;;;;4450311;32;20628;-52
2022/03/25 08:33:04;;;;;;;19.43;10.83;;;;;;;;;;4450011;32;20378;-52
2022/03/25 08:35:30;;;;;;;20.57;10.70;;;;;;;;;;4449809;32;20329;-51
2022/03/25 08:37:57;;;;;;;29.87;12.20;;;;;;;;;;4449704;32;20220;-52
2022/03/25 08:40:24;;;;;;;19.50;14.03;;;;;;;;;;4460013;32;20220;-53
2022/03/25 08:42:50;;;;;;;22.83;13.87;;;;;;;;;;4465603;32;20287;-52
2022/03/25 08:45:16;;;;;;;23.30;11.70;;;;;;;;;;4465004;32;20330;-54
2022/03/25 08:47:43;;;;;;;22.30;12.30;;;;;;;;;;4464816;32;20753;-52
2022/03/25 08:50:12;;;;;;;21.40;12.13;;;;;;;;;;4465726;32;20494;-53
2022/03/25 08:52:41;;;;;;;23.63;11.40;;;;;;;;;;4465239;32;20319;-52
2022/03/25 08:55:09;;;;;;;18.37;12.00;;;;;;;;;;4465209;32;20303;-53
2022/03/25 08:57:34;;;;;;;32.00;13.80;;;;;;;;;;4458859;32;20370;-52
2022/03/25 09:00:00;;;;;;;18.10;11.68;;;;;;;;;;4450360;32;21003;-53
2022/03/25 09:02:26;;;;;;;17.93;10.97;;;;;;;;;;4449454;32;20287;-51
2022/03/25 09:04:51;;;;;;;21.03;11.17;;;;;;;;;;4454304;32;20299;-53
2022/03/25 09:07:17;;;;;;;17.30;10.50;;;;;;;;;;4449947;32;20208;-53
2022/03/25 09:09:42;;;;;;;20.92;11.45;;;;;;;;;;4448124;32;20839;-52
2022/03/25 09:12:09;;;;;;;16.98;10.57;;;;;;;;;;4449477;32;20224;-52
2022/03/25 09:14:35;;;;;;;17.33;10.10;;;;;;;;;;4447864;32;20240;-53
2022/03/25 09:17:00;;;;;;;20.27;10.57;;;;;;;;;;4449388;32;20223;-53
2022/03/25 09:19:26;;;;;;;15.47;10.07;;;;;;;;;;4449389;32;20291;-53
2022/03/25 09:21:52;;;;;;;19.60;10.40;;;;;;;;;;4447985;32;20668;-53
2022/03/25 09:24:17;;;;;;;16.45;8.85;;;;;;;;;;4449310;32;20656;-52
2022/03/25 09:26:43;;;;;;;29.08;10.73;;;;;;;;;;4449745;32;20204;-52
2022/03/25 09:29:09;;;;;;;17.90;9.05;;;;;;;;;;4449091;32;20272;-53
2022/03/25 09:31:34;;;;;;;15.75;9.48;;;;;;;;;;4448814;32;20537;-52
2022/03/25 09:36:44;;;;;;;14.20;9.50;;;;;;;;;;4448960;32;20298;-53
2022/03/25 09:39:10;;;;;;;17.42;9.50;;;;;;;;;;4448574;32;20224;-52
2022/03/25 09:41:36;;;;;;;12.88;8.88;;;;;;;;;;4448943;32;20339;-53
2022/03/25 09:44:03;;;;;;;23.02;10.25;;;;;;;;;;4448921;32;20237;-53
2022/03/25 09:46:29;;;;;;;17.48;10.20;;;;;;;;;;4448514;32;20216;-53
2022/03/25 09:48:54;;;;;;;29.15;13.07;;;;;;;;;;4448361;32;20259;-52
2022/03/25 09:51:20;;;;;;;12.48;8.35;;;;;;;;;;4448515;32;20316;-53
2022/03/25 09:53:47;;;;;;;29.70;11.95;;;;;;;;;;4448508;32;20316;-52
2022/03/25 09:56:15;;;;;;;24.37;8.25;;;;;;;;;;4449550;32;20331;-51
2022/03/25 09:58:41;;;;;;;17.15;7.18;;;;;;;;;;4451318;32;20224;-51
2022/03/25 10:01:06;;;;;;;10.52;6.65;;;;;;;;;;4448262;32;20291;-53
2022/03/25 10:03:36;;;;;;;14.73;6.78;;;;;;;;;;4448892;32;20273;-51
2022/03/25 10:06:07;;;;;;;21.83;11.35;;;;;;;;;;4453463;32;20212;-51
2022/03/25 10:08:33;;;;;;;16.62;9.13;;;;;;;;;;4448414;32;20614;-53
2022/03/25 10:11:18;;;;;;;8.20;6.13;;;;;;;;;;4463426;32;20417;-52
2022/03/25 10:13:43;;;;;;;9.70;6.37;;;;;;;;;;4464215;32;20232;-52
2022/03/25 10:16:45;;;;;;;16.00;6.72;;;;;;;;;;4463680;32;20278;-52
2022/03/25 10:19:21;;;;;;;13.70;7.40;;;;;;;;;;4400195;32;20358;-52
2022/03/25 10:21:58;;;;;;;15.40;6.65;;;;;;;;;;4451848;32;20390;-53
2022/03/25 10:24:37;;;;;;;11.27;6.78;;;;;;;;;;4461952;32;20248;-54
2022/03/25 10:27:07;;;;;;;19.15;7.12;;;;;;;;;;4463441;32;20207;-51
2022/03/25 10:29:35;;;;;;;11.77;6.55;;;;;;;;;;4449291;32;20254;-52
2022/03/25 10:32:09;;;;;;;14.85;8.30;;;;;;;;;;4446793;32;20557;-53
2022/03/25 10:34:40;;;;;;;12.73;6.80;;;;;;;;;;4446877;32;20254;-54
2022/03/25 10:37:09;;;;;;;17.27;6.32;;;;;;;;;;4448548;32;20226;-52
2022/03/25 10:39:35;;;;;;;16.87;6.87;;;;;;;;;;4448390;32;20254;-52
2022/03/25 10:42:06;;;;;;;14.50;7.62;;;;;;;;;;4448085;32;20642;-54
2022/03/25 10:44:38;;;;;;;16.12;7.22;;;;;;;;;;4447092;32;20260;-53
2022/03/25 10:47:15;;;;;;;13.38;6.75;;;;;;;;;;4446091;32;20363;-53
2022/03/25 10:49:46;;;;;;;11.95;6.68;;;;;;;;;;4447414;32;20220;-54
2022/03/25 10:52:23;;;;;;;12.30;7.28;;;;;;;;;;4447040;32;20242;-53
2022/03/25 10:54:48;;;;;;;15.18;9.02;;;;;;;;;;4446915;32;20371;-52
2022/03/25 10:57:16;;;;;;;25.33;8.48;;;;;;;;;;4445677;32;20323;-53
2022/03/25 10:59:41;;;;;;;11.82;8.38;;;;;;;;;;4446432;32;20224;-52
2022/03/25 11:02:08;;;;;;;17.55;8.88;;;;;;;;;;4448142;32;20226;-52
2022/03/25 11:04:35;;;;;;;14.25;8.40;;;;;;;;;;4450310;32;20252;-53
2022/03/25 11:07:01;;;;;;;17.70;10.43;;;;;;;;;;4448570;32;20312;-52
2022/03/25 11:09:27;;;;;;;11.15;6.18;;;;;;;;;;4447550;32;20823;-54
2022/03/25 11:11:54;;;;;;;15.57;6.85;;;;;;;;;;4446818;32;20216;-52
2022/03/25 11:14:20;;;;;;;34.25;14.07;;;;;;;;;;4447984;32;20308;-51
2022/03/25 11:16:57;;;;;;;17.55;9.18;;;;;;;;;;4446215;32;20642;-53
2022/03/25 11:19:23;;;;;;;13.68;7.12;;;;;;;;;;4447910;32;20204;-53
2022/03/25 11:21:50;;;;;;;15.60;6.60;;;;;;;;;;4447030;32;20219;-52
2022/03/25 11:24:18;;;;;;;19.70;7.07;;;;;;;;;;4447531;32;20633;-53
2022/03/25 11:26:47;;;;;;;16.98;6.75;;;;;;;;;;4448017;32;20786;-52
2022/03/25 11:29:14;;;;;;;13.48;5.85;;;;;;;;;;4458289;32;20370;-51
2022/03/25 11:32:07;;;;;;;14.10;5.75;;;;;;;;;;4462493;32;20225;-53
2022/03/25 11:34:38;;;;;;;10.73;6.40;;;;;;;;;;4463313;32;20274;-51
2022/03/25 11:37:31;;;;;;;14.02;6.55;;;;;;;;;;4463435;32;20207;-52
2022/03/25 11:40:25;;;;;;;13.75;6.78;;;;;;;;;;4460962;32;20787;-53
2022/03/25 11:43:13;;;;;;;13.27;7.20;;;;;;;;;;4463579;32;20386;-53
2022/03/25 11:45:39;;;;;;;11.07;5.78;;;;;;;;;;4463774;32;20236;-52
2022/03/25 11:48:04;;;;;;;9.40;6.15;;;;;;;;;;4463197;32;20765;-52
2022/03/25 11:50:29;;;;;;;13.77;6.00;;;;;;;;;;4463443;32;20640;-52
2022/03/25 11:52:56;;;;;;;11.02;6.25;;;;;;;;;;4452385;32;20314;-52
2022/03/25 11:55:21;;;;;;;25.02;7.65;;;;;;;;;;4447610;32;20267;-53
2022/03/25 11:57:47;;;;;;;19.10;6.35;;;;;;;;;;4446621;32;20282;-51
2022/03/25 12:00:25;;;;;;;12.75;5.15;;;;;;;;;;4447694;32;20275;-52
2022/03/25 12:03:01;;;;;;;16.58;6.25;;;;;;;;;;4447842;32;20757;-53
2022/03/25 12:05:26;;;;;;;9.82;5.22;;;;;;;;;;4452627;32;20279;-53
2022/03/25 12:08:28;;;;;;;13.38;6.97;;;;;;;;;;4447494;32;20298;-53
2022/03/25 12:10:55;;;;;;;10.00;6.47;;;;;;;;;;4447877;32;20231;-53
2022/03/25 12:13:21;;;;;;;9.65;5.18;;;;;;;;;;4448084;32;20247;-53
2022/03/25 12:15:49;;;;;;;12.93;7.78;;;;;;;;;;4447732;32;20664;-53
2022/03/25 12:18:46;;;;;;;17.90;6.87;;;;;;;;;;4447613;32;20570;-52
2022/03/25 12:21:20;;;;;;;14.45;5.80;;;;;;;;;;4447494;32;20197;-54
2022/03/25 12:23:55;;;;;;;10.23;5.95;;;;;;;;;;4446387;32;20352;-52
2022/03/25 12:26:35;;;;;;;9.60;5.70;;;;;;;;;;4447576;32;20234;-52
2022/03/25 12:29:01;;;;;;;10.98;5.90;;;;;;;;;;4448011;32;20659;-53
2022/03/25 12:31:28;;;;;;;17.35;4.85;;;;;;;;;;4447687;32;20287;-54
2022/03/25 12:34:02;;;;;;;10.18;5.70;;;;;;;;;;4449933;32;20686;-54
2022/03/25 12:36:43;;;;;;;14.60;6.30;;;;;;;;;;4450383;32;20285;-53
2022/03/25 12:39:15;;;;;;;9.35;6.30;;;;;;;;;;4450505;32;20671;-54
2022/03/25 12:41:47;;;;;;;9.02;5.57;;;;;;;;;;4450210;32;20548;-53
2022/03/25 12:44:13;;;;;;;9.82;4.78;;;;;;;;;;4450668;32;20251;-54
2022/03/25 12:46:38;;;;;;;9.57;3.97;;;;;;;;;;4449887;32;20565;-53
2022/03/25 12:49:06;;;;;;;10.20;4.22;;;;;;;;;;4451141;32;20299;-53
2022/03/25 12:51:32;;;;;;;9.13;4.37;;;;;;;;;;4449806;32;20220;-53
2022/03/25 12:53:59;;;;;;;6.32;3.30;;;;;;;;;;4464010;32;20678;-52
2022/03/25 12:56:25;;;;;;;6.05;3.50;;;;;;;;;;4465573;32;20226;-52
2022/03/25 12:58:53;;;;;;;14.20;3.35;;;;;;;;;;4452238;32;20295;-54
2022/03/25 13:01:19;;;;;;;4.25;3.20;;;;;;;;;;4449327;32;20247;-52
2022/03/25 13:03:47;;;;;;;7.25;2.87;;;;;;;;;;4450234;32;20281;-52
2022/03/25 13:06:18;;;;;;;6.30;3.40;;;;;;;;;;4454764;32;20237;-52
2022/03/25 13:08:45;;;;;;;11.35;4.68;;;;;;;;;;4451363;32;20616;-52
2022/03/25 13:11:14;;;;;;;8.55;3.62;;;;;;;;;;4465151;32;20208;-53
2022/03/25 13:13:39;;;;;;;11.48;3.12;;;;;;;;;;4465344;32;20319;-53
2022/03/25 13:16:06;;;;;;;14.35;3.65;;;;;;;;;;4464157;32;20616;-53
2022/03/25 13:18:34;;;;;;;16.12;5.75;;;;;;;;;;4450603;32;20231;-54
2022/03/25 13:21:00;;;;;;;8.32;4.40;;;;;;;;;;4449882;32;20224;-53
2022/03/25 13:23:29;;;;;;;5.70;2.62;;;;;;;;;;4450139;32;20291;-53
2022/03/25 13:25:57;;;;;;;4.07;2.55;;;;;;;;;;4450352;32;20696;-53
2022/03/25 13:28:31;;;;;;;6.18;3.15;;;;;;;;;;4450076;32;20220;-53
2022/03/25 13:31:00;;;;;;;7.68;4.28;;;;;;;;;;4450016;32;20263;-52
2022/03/25 13:33:28;;;;;;;11.02;3.45;;;;;;;;;;4448605;32;20303;-52
2022/03/25 13:35:58;;;;;;;8.75;3.87;;;;;;;;;;4449799;32;20222;-52
2022/03/25 13:38:48;;;;;;;15.25;5.78;;;;;;;;;;4449756;32;20228;-52
2022/03/25 13:41:18;;;;;;;17.60;6.43;;;;;;;;;;4449386;32;20279;-52
2022/03/25 13:43:46;;;;;;;8.55;4.30;;;;;;;;;;4449744;32;20293;-53
2022/03/25 13:46:17;;;;;;;7.18;3.75;;;;;;;;;;4449133;32;20227;-52
2022/03/25 13:48:44;;;;;;;10.13;4.37;;;;;;;;;;4449684;32;20228;-53
2022/03/25 13:51:17;;;;;;;9.95;4.43;;;;;;;;;;4449337;32;20526;-52
2022/03/25 13:53:43;;;;;;;13.23;5.47;;;;;;;;;;4449295;32;20564;-54
2022/03/25 13:56:36;;;;;;;10.40;3.87;;;;;;;;;;4448043;32;20295;-52
2022/03/25 13:59:02;;;;;;;15.18;6.57;;;;;;;;;;4456945;32;20228;-52
2022/03/25 14:01:36;;;;;;;8.07;3.37;;;;;;;;;;4464789;32;20212;-53
2022/03/25 14:04:07;;;;;;;5.65;2.85;;;;;;;;;;4465298;32;20590;-52
2022/03/25 14:06:39;;;;;;;5.30;3.72;;;;;;;;;;4448723;32;20243;-51
2022/03/25 14:09:05;;;;;;;14.05;4.25;;;;;;;;;;4453098;32;20272;-52
2022/03/25 14:11:35;;;;;;;8.15;2.62;;;;;;;;;;4464693;32;20517;-53
2022/03/25 14:14:02;;;;;;;5.90;3.15;;;;;;;;;;4454750;32;20204;-53
2022/03/25 14:16:33;;;;;;;10.43;3.65;;;;;;;;;;4448561;32;20276;-53
2022/03/25 14:18:59;;;;;;;7.10;3.85;;;;;;;;;;4447904;32;20262;-52
2022/03/25 14:21:32;;;;;;;6.70;3.60;;;;;;;;;;4449194;32;20601;-53
2022/03/25 14:26:45;;;;;;;3.97;2.25;;;;;;;;;;4449109;32;20227;-53
2022/03/25 14:29:11;;;;;;;6.65;3.65;;;;;;;;;;4448852;32;20320;-52
2022/03/25 14:31:38;;;;;;;7.68;3.00;;;;;;;;;;4448770;32;20267;-54